• Join FlightAware (Why Join?)
  • Login
  • US Flag 
Rudolph Flight #1: Arrived! 
11:48PM EST


 

Airport Tracker/Info


-or-


 

Live Flight TrackerFlight Track Log ✈ EJA929 ✈ 15-Jun-2013 ✈ KVNY - KAUS

Flight Track Log - Related Links

Times and Time Zones

All times are in EDT time to prevent confusion due to time zone crossing. See the EJA929 flight status page for this flight to view local times or setup timezone preferences in your user account.

Time Position Orientation Groundspeed Altitude Reporting Facility
EDT Latitude Longitude Course Direction KTS MPH feet Rate Location/Type
12:20PM 34.1839 -118.4875 112° Southeast 174 200 45,000  Level Los Angeles Center
12:21PM 34.1658 -118.4322 112° Southeast 231 266 4,700 -18,540 Descending Los Angeles Center
12:22PM 34.2297 -118.4103 16° North 244 281 6,800 2,340 Climbing Los Angeles Center
12:23PM 34.3067 -118.3842 16° North 281 323 9,600 2,220 Climbing Los Angeles Center
12:24PM 34.3897 -118.3581 15° North 306 352 11,500 1,620 Climbing Los Angeles Center
12:25PM 34.4797 -118.3092 24° Northeast 358 412 13,000 1,440 Climbing Los Angeles Center
12:26PM 34.5433 -118.2072 53° Northeast 379 436 14,500 1,380 Climbing Los Angeles Center
12:27PM 34.6008 -118.1094 54° Northeast 392 451 15,900 2,040 Climbing Los Angeles Center
12:28PM 34.6172 -117.9525 83° East 392 451 18,800 2,520 Climbing Los Angeles Center
12:29PM 34.6347 -117.8294 80° East 375 432 21,200 2,220 Climbing Los Angeles Center
12:30PM 34.6056 -117.7142 107° East 366 421 23,400 1,920 Climbing Los Angeles Center
12:32PM 34.5575 -117.5711 112° Southeast 384 442 25,200 1,740 Climbing Los Angeles Center
12:33PM 34.5136 -117.4375 112° Southeast 423 487 27,100 1,320 Climbing Los Angeles Center
12:34PM 34.4664 -117.2961 112° Southeast 448 516 28,000 720 Climbing Los Angeles Center
12:35PM 34.4136 -117.1442 113° Southeast 490 564 28,700 1,320 Climbing Los Angeles Center
12:36PM 34.3350 -117.0117 126° Southeast 484 557 30,800 2,400 Climbing Los Angeles Center
12:37PM 34.2661 -116.8364 115° Southeast 485 558 33,700 2,340 Climbing Los Angeles Center
12:38PM 34.2194 -116.6844 110° East 484 557 35,700 1,860 Climbing Los Angeles Center
12:39PM 34.1706 -116.5331 111° Southeast 484 557 37,600 1,560 Climbing Los Angeles Center
12:40PM 34.1256 -116.3825 110° East 497 572 39,000 1,500 Climbing Los Angeles Center
12:41PM 34.0656 -116.2008 112° Southeast 487 560 40,800 1,560 Climbing Los Angeles Center
12:42PM 34.0178 -116.0481 111° Southeast 487 560 42,300 1,320 Climbing Los Angeles Center
12:43PM 33.9686 -115.8972 111° Southeast 484 557 43,600 1,080 Climbing Los Angeles Center
12:44PM 33.9189 -115.7433 111° Southeast 487 560 44,600 660 Climbing Los Angeles Center
12:45PM 33.8697 -115.5942 112° Southeast 481 554 45,000 180 Climbing Los Angeles Center
12:46PM 33.8189 -115.4372 111° Southeast 497 572 45,000  Level Los Angeles Center
12:47PM 33.7650 -115.2772 112° Southeast 513 590 45,000  Level Los Angeles Center
12:48PM 33.7003 -115.0781 111° Southeast 530 610 45,000  Level Los Angeles Center
12:49PM 33.6450 -114.9133 112° Southeast 535 616 45,000  Level Los Angeles Center
12:50PM 33.5947 -114.7458 110° East 535 616 45,000  Level Los Angeles Center
12:51PM 33.5756 -114.5653 97° East 549 632 45,000  Level Los Angeles Center
12:52PM 33.5628 -114.4225 96° East 542 624 45,000  Level Los Angeles Center
12:53PM 33.5547 -114.2886 94° East 543 625 45,000  Level Albuquerque Center
12:54PM 33.5303 -114.1106 99° East 542 624 45,000  Level Albuquerque Center
12:55PM 33.4961 -113.9369 103° East 538 619 45,000  Level Albuquerque Center
12:56PM 33.4636 -113.7625 103° East 537 618 45,000  Level Albuquerque Center
12:57PM 33.4300 -113.5889 103° East 536 617 45,000  Level Albuquerque Center
12:58PM 33.3911 -113.3783 102° East 539 620 45,000  Level Albuquerque Center
12:59PM 33.3569 -113.2042 103° East 538 619 45,000  Level Albuquerque Center
01:00PM 33.3228 -113.0292 103° East 539 620 45,000  Level Albuquerque Center
01:01PM 33.2892 -112.8539 103° East 539 620 45,000 -60 Level Albuquerque Center
01:02PM 33.2547 -112.6797 103° East 538 619 44,900  Descending Albuquerque Center
01:03PM 33.2200 -112.4975 103° East 530 610 45,000  Climbing Albuquerque Center
01:04PM 33.1847 -112.3264 104° East 532 612 45,000  Level Albuquerque Center
01:05PM 33.1519 -112.1558 103° East 533 613 45,000  Level Albuquerque Center
01:06PM 33.1100 -111.9514 104° East 533 613 45,000  Level Albuquerque Center
01:07PM 33.0758 -111.7808 103° East 533 613 45,000  Level Albuquerque Center
01:08PM 33.0408 -111.6114 104° East 530 610 45,000  Level Albuquerque Center
01:09PM 33.0058 -111.4433 104° East 528 608 45,000  Level Albuquerque Center
01:10PM 32.9717 -111.2731 103° East 532 612 45,000  Level Albuquerque Center
01:11PM 32.9286 -111.0703 104° East 531 611 45,000  Level Albuquerque Center
01:12PM 32.8936 -110.9017 104° East 529 609 45,000  Level Albuquerque Center
01:13PM 32.8561 -110.7331 105° East 530 610 45,000  Level Albuquerque Center
01:14PM 32.8192 -110.5547 104° East 530 610 45,000  Level Albuquerque Center
01:15PM 32.7825 -110.3872 105° East 529 609 45,000  Level Albuquerque Center
01:16PM 32.7461 -110.2192 104° East 531 611 45,000  Level Albuquerque Center
01:17PM 32.7089 -110.0508 105° East 533 613 45,000  Level Albuquerque Center
01:18PM 32.6636 -109.8481 105° East 535 616 45,000  Level Albuquerque Center
01:20PM 32.6256 -109.6794 105° East 536 617 45,000  Level Albuquerque Center
01:21PM 32.5864 -109.5103 105° East 539 620 45,000  Level Albuquerque Center
01:22PM 32.5492 -109.3444 105° East 534 615 45,000  Level Albuquerque Center
01:23PM 32.5044 -109.1450 105° East 532 612 45,000  Level Albuquerque Center
01:24PM 32.4656 -108.9800 106° East 531 611 45,000  Level Albuquerque Center
01:25PM 32.4281 -108.8147 105° East 529 609 45,000  Level Albuquerque Center
01:26PM 32.3900 -108.6489 105° East 529 609 45,000  Level Albuquerque Center
01:27PM 32.3439 -108.4519 105° East 527 606 45,000  Level Albuquerque Center
01:28PM 32.3103 -108.3072 105° East 526 605 45,000  Level Albuquerque Center
01:29PM 32.2639 -108.1067 105° East 528 608 45,000  Level Albuquerque Center
01:30PM 32.2239 -107.9408 106° East 528 608 45,000  Level Albuquerque Center
01:31PM 32.1836 -107.7764 106° East 526 605 45,000  Level Albuquerque Center
01:32PM 32.1453 -107.6128 105° East 523 602 45,000  Level Albuquerque Center
01:33PM 32.1053 -107.4489 106° East 524 603 45,000  Level Albuquerque Center
01:34PM 32.0581 -107.2536 106° East 524 603 45,000  Level Albuquerque Center
01:35PM 32.0189 -107.0917 106° East 522 601 45,000  Level Albuquerque Center
01:36PM 31.9783 -106.9275 106° East 525 604 45,000  Level Albuquerque Center
01:37PM 31.9383 -106.7661 106° East 521 600 45,000  Level Albuquerque Center
01:38PM 31.8967 -106.6033 107° East 521 600 45,000  Level Albuquerque Center
01:39PM 31.8531 -106.4203 106° East 533 613 45,000  Level Albuquerque Center
01:40PM 31.8131 -106.2544 106° East 530 610 45,000  Level Albuquerque Center
01:41PM 31.7928 -106.0850 98° East 520 598 45,000  Level Albuquerque Center
01:42PM 31.7681 -105.8817 98° East 522 601 45,000  Level Albuquerque Center
01:43PM 31.7472 -105.7125 98° East 523 602 45,000  Level Albuquerque Center
01:44PM 31.7264 -105.5431 98° East 524 603 45,000  Level Albuquerque Center
01:45PM 31.7053 -105.3747 98° East 521 600 45,000  Level Albuquerque Center
01:46PM 31.6844 -105.2069 98° East 519 597 45,000  Level Albuquerque Center
01:47PM 31.6644 -105.0394 98° East 517 595 45,000  Level Albuquerque Center
01:48PM 31.6425 -104.8706 99° East 520 598 45,000  Level Albuquerque Center
01:49PM 31.6172 -104.6686 98° East 520 598 45,000  Level Albuquerque Center
01:51PM 31.5964 -104.5006 98° East 519 597 45,000  Level Albuquerque Center
01:52PM 31.5747 -104.3339 99° East 518 596 45,000  Level Albuquerque Center
01:53PM 31.5514 -104.1681 99° East 516 594 45,000  Level Albuquerque Center
01:54PM 31.5289 -104.0017 99° East 516 594 45,000  Level Albuquerque Center
01:55PM 31.5075 -103.8367 99° East 514 592 45,000  Level Albuquerque Center
01:56PM 31.4833 -103.6672 99° East 514 592 45,000  Level Albuquerque Center
01:57PM 31.4606 -103.5025 99° East 514 592 45,000  Level Albuquerque Center
01:58PM 31.4358 -103.3053 98° East 513 590 45,000  Level Albuquerque Center
01:59PM 31.4147 -103.1411 99° East 512 589 45,000  Level Albuquerque Center
02:00PM 31.3933 -102.9761 99° East 513 590 45,000  Level Albuquerque Center
02:01PM 31.3722 -102.8108 98° East 513 590 45,000  Level Albuquerque Center
02:02PM 31.3517 -102.6475 98° East 512 589 45,000  Level Albuquerque Center
02:03PM 31.3306 -102.4850 99° East 530 610 45,000  Level Albuquerque Center
02:04PM 31.3042 -102.2844 99° East 527 606 45,000  Level Albuquerque Center
02:05PM 31.2828 -102.1200 99° East 518 596 45,000  Level Albuquerque Center
02:05PM 31.2728 -102.0256 97° East 522 601 45,000  Level Houston Center
02:07PM 31.2500 -101.8619 99° East 511 588 45,000  Level Houston Center
02:08PM 31.2272 -101.6975 99° East 513 590 45,000  Level Houston Center
02:09PM 31.2044 -101.5325 99° East 515 593 45,000  Level Houston Center
02:10PM 31.1811 -101.3661 99° East 518 596 45,000  Level Houston Center
02:11PM 31.1553 -101.1839 99° East 519 597 45,000  Level Houston Center
02:12PM 31.1328 -101.0169 99° East 520 598 45,000 -60 Level Houston Center
02:13PM 31.1103 -100.8506 99° East 519 597 44,900 -1,020 Descending Houston Center
02:14PM 31.0842 -100.6836 100° East 522 601 42,900 -2,460 Descending Houston Center
02:15PM 31.0556 -100.4808 99° East 527 606 39,900 -2,760 Descending Houston Center
02:16PM 31.0303 -100.3089 100° East 536 617 37,300 -2,580 Descending Houston Center
02:17PM 31.0044 -100.1331 100° East 547 629 34,600 -2,580 Descending Houston Center
02:18PM 30.9789 -99.9561 100° East 552 635 32,000 -2,580 Descending Houston Center
02:19PM 30.9517 -99.7803 100° East 552 635 29,300 -2,700 Descending Houston Center
02:20PM 30.9258 -99.6069 100° East 544 626 26,500 -2,640 Descending Houston Center
02:21PM 30.9000 -99.4436 100° East 517 595 23,900 -2,640 Descending Houston Center
02:22PM 30.8708 -99.2589 100° East 484 557 21,100 -1,440 Descending Houston Center
02:23PM 30.8478 -99.1175 101° East 466 536 21,000 -60 Descending Houston Center
02:24PM 30.8258 -98.9700 100° East 459 528 21,000  Level Houston Center
02:25PM 30.8031 -98.8250 100° East 455 524 21,000 -480 Level Houston Center
02:26PM 30.7844 -98.6844 99° East 440 506 20,100 -1,620 Descending Houston Center
02:27PM 30.7717 -98.5444 96° East 433 498 17,700 -2,520 Descending Houston Center
02:28PM 30.7536 -98.3783 97° East 439 505 14,900 -2,460 Descending Houston Center
02:29PM 30.7392 -98.2456 97° East 415 478 12,700 -2,160 Descending Houston Center
02:30PM 30.7253 -98.1181 97° East 400 460 10,500 -1,320 Descending Houston Center
02:31PM 30.6794 -98.0078 116° Southeast 384 442 10,000 -300 Descending Houston Center
02:32PM 30.6211 -97.9253 129° Southeast 340 391 10,000 -1,020 Level Houston Center
02:33PM 30.5681 -97.8597 133° Southeast 287 330 7,900 -1,980 Descending Houston Center
02:34PM 30.5142 -97.7953 134° Southeast 277 319 6,000 -1,920 Descending Houston Center
02:35PM 30.4372 -97.7464 151° Southeast 268 308 4,000 -1,440 Descending Houston Center
02:36PM 30.3767 -97.7058 150° Southeast 260 299 3,100 -720 Descending Houston Center
02:37PM 30.3242 -97.6717 151° Southeast 239 275 2,600 -540 Descending Houston Center
02:39PM 30.2836 -97.6575 163° South 186 214 2,100 -660 Descending Houston Center
02:40PM 30.2431 -97.6569 179° South 158 182 1,300 -540 Descending Houston Center
02:41PM 30.2000 -97.6542 177° South 152 175 1,100 -240 Descending Houston Center
02:43PM 30.1833 -97.6667 221° Southwest  Level FlightAware Approximate